createdAt,value
2023-05-10T00:02:21.774Z,97029.28
2023-05-10T00:05:10.819Z,97030.03
2023-05-10T00:07:59.924Z,97023.09
2023-05-10T00:10:48.669Z,97022.34
2023-05-10T00:13:38.948Z,97026.19
2023-05-10T00:16:27.735Z,97025.81
2023-05-10T00:19:16.930Z,97019.13
2023-05-10T00:22:05.668Z,97014.47
2023-05-10T00:24:54.349Z,97013.75
2023-05-10T00:27:43.109Z,97018.69
2023-05-10T00:30:33.312Z,97012.50
2023-05-10T00:33:22.080Z,97014.47
2023-05-10T00:36:11.014Z,97015.50
2023-05-10T00:38:59.743Z,97013.56
2023-05-10T00:41:48.449Z,97012.72
2023-05-10T00:44:38.217Z,97007.22
2023-05-10T00:47:30.106Z,97009.00
2023-05-10T00:50:19.090Z,97007.75
2023-05-10T00:53:08.314Z,97014.16
2023-05-10T00:55:58.347Z,97008.72
2023-05-10T00:58:47.232Z,97007.94
2023-05-10T01:01:37.184Z,97014.75
2023-05-10T01:04:27.528Z,97005.06
2023-05-10T01:07:16.272Z,97012.59
2023-05-10T01:10:06.662Z,97016.38
2023-05-10T01:12:55.753Z,97010.66
2023-05-10T01:15:44.554Z,97013.84
2023-05-10T01:18:37.112Z,97015.28
2023-05-10T01:21:45.226Z,97014.25
2023-05-10T01:25:49.718Z,97005.69
2023-05-10T01:29:40.467Z,97008.94
2023-05-10T01:32:38.656Z,97013.59
2023-05-10T01:35:39.728Z,97012.06
2023-05-10T01:38:41.206Z,97019.91
2023-05-10T01:41:41.739Z,97020.00
2023-05-10T01:44:37.727Z,97016.00
2023-05-10T01:47:37.701Z,97021.47
2023-05-10T01:50:32.067Z,97017.53
2023-05-10T01:53:23.430Z,97022.97
2023-05-10T01:56:14.683Z,97031.56
2023-05-10T01:59:13.336Z,97023.66
2023-05-10T02:02:04.729Z,97022.94
2023-05-10T02:04:57.509Z,97023.34
2023-05-10T02:07:47.526Z,97029.56
2023-05-10T02:10:37.723Z,97017.44
2023-05-10T02:13:28.933Z,97012.34
2023-05-10T02:16:23.401Z,97014.63
2023-05-10T02:19:15.842Z,97022.63
2023-05-10T02:22:07.074Z,97017.44
2023-05-10T02:24:57.942Z,97020.81
2023-05-10T02:27:49.031Z,97020.00
2023-05-10T02:30:39.248Z,97017.97
2023-05-10T02:33:29.509Z,97026.00
2023-05-10T02:36:20.421Z,97022.38
2023-05-10T02:39:13.756Z,97023.78
2023-05-10T02:42:04.340Z,97027.72
2023-05-10T02:44:58.934Z,97019.75
2023-05-10T02:47:47.723Z,97023.78
2023-05-10T02:50:38.689Z,97019.03
2023-05-10T02:53:35.451Z,97026.03
2023-05-10T02:56:33.748Z,97024.75
2023-05-10T02:59:22.454Z,97021.78
2023-05-10T03:02:12.353Z,97009.16
2023-05-10T03:05:01.217Z,97017.88
2023-05-10T03:07:51.946Z,97020.56
2023-05-10T03:10:57.878Z,97018.84
2023-05-10T03:14:09.856Z,97023.59
2023-05-10T03:17:12.230Z,97022.84
2023-05-10T03:20:08.725Z,97022.75
2023-05-10T03:23:04.898Z,97020.84
2023-05-10T03:25:54.890Z,97031.81
2023-05-10T03:28:44.779Z,97027.06
2023-05-10T03:31:35.135Z,97021.47
2023-05-10T03:34:26.314Z,97026.59
2023-05-10T03:37:15.285Z,97023.69
2023-05-10T03:40:05.208Z,97032.53
2023-05-10T03:42:57.004Z,97032.59
2023-05-10T03:45:45.953Z,97031.88
2023-05-10T03:48:36.635Z,97036.94
2023-05-10T03:51:28.987Z,97037.94
2023-05-10T03:54:17.732Z,97040.72
2023-05-10T03:57:06.656Z,97045.41
2023-05-10T03:59:55.515Z,97051.53
2023-05-10T04:02:46.340Z,97050.34
2023-05-10T04:05:41.600Z,97051.16
2023-05-10T04:08:30.639Z,97051.59
2023-05-10T04:11:19.757Z,97051.53
2023-05-10T04:14:08.634Z,97048.88
2023-05-10T04:16:57.361Z,97057.75
2023-05-10T04:19:46.109Z,97054.47
2023-05-10T04:22:36.382Z,97057.47
2023-05-10T04:25:25.325Z,97060.09
2023-05-10T04:28:14.160Z,97060.50
2023-05-10T04:31:07.318Z,97071.59
2023-05-10T04:33:56.103Z,97071.63
2023-05-10T04:36:44.905Z,97072.94
2023-05-10T04:39:35.126Z,97061.34
2023-05-10T04:42:23.970Z,97074.09
2023-05-10T04:45:13.030Z,97076.59
2023-05-10T04:48:01.785Z,97066.75
2023-05-10T04:50:50.903Z,97076.09
2023-05-10T04:53:39.746Z,97082.25
2023-05-10T04:56:29.903Z,97081.59
2023-05-10T04:59:18.635Z,97080.63
2023-05-10T05:02:07.948Z,97080.41
2023-05-10T05:05:01.507Z,97088.06
2023-05-10T05:07:50.623Z,97084.88
2023-05-10T05:10:39.369Z,97088.03
2023-05-10T05:13:29.603Z,97091.97
2023-05-10T05:16:18.490Z,97096.94
2023-05-10T05:19:07.424Z,97100.16
2023-05-10T05:21:56.164Z,97100.25
2023-05-10T05:24:45.958Z,97105.72
2023-05-10T05:27:35.016Z,97107.13
2023-05-10T05:30:25.218Z,97119.41
2023-05-10T05:33:16.401Z,97116.38
2023-05-10T05:36:07.343Z,97128.84
2023-05-10T05:38:57.612Z,97125.84
2023-05-10T05:41:47.178Z,97127.44
2023-05-10T05:44:35.966Z,97136.69
2023-05-10T05:47:26.101Z,97136.38
2023-05-10T05:50:15.192Z,97143.59
2023-05-10T05:53:03.953Z,97139.03
2023-05-10T05:55:56.790Z,97145.97
2023-05-10T05:58:46.562Z,97145.84
2023-05-10T06:01:35.679Z,97144.84
2023-05-10T06:04:25.865Z,97148.03
2023-05-10T06:07:14.705Z,97147.84
2023-05-10T06:10:03.787Z,97152.31
2023-05-10T06:12:53.170Z,97153.69
2023-05-10T06:15:42.150Z,97154.38
2023-05-10T06:18:31.059Z,97161.59
2023-05-10T06:21:21.370Z,97154.72
2023-05-10T06:24:10.375Z,97159.25
2023-05-10T06:27:01.110Z,97165.63
2023-05-10T06:29:52.196Z,97177.88
2023-05-10T06:32:46.173Z,97164.63
2023-05-10T06:35:35.131Z,97174.84
2023-05-10T06:38:25.629Z,97175.72
2023-05-10T06:41:16.050Z,97174.25
2023-05-10T06:44:04.965Z,97177.44
2023-05-10T06:46:54.675Z,97174.91
2023-05-10T06:49:43.494Z,97180.00
2023-05-10T06:52:32.253Z,97180.78
2023-05-10T06:55:22.816Z,97183.53
2023-05-10T06:58:11.919Z,97188.03
2023-05-10T07:01:05.258Z,97198.94
2023-05-10T07:03:54.245Z,97198.09
2023-05-10T07:06:43.021Z,97197.28
2023-05-10T07:09:31.976Z,97199.34
2023-05-10T07:12:22.072Z,97204.72
2023-05-10T07:15:11.833Z,97203.78
2023-05-10T07:18:00.771Z,97209.69
2023-05-10T07:20:49.675Z,97202.81
2023-05-10T07:23:38.485Z,97205.38
2023-05-10T07:26:27.246Z,97207.03
2023-05-10T07:29:17.439Z,97209.28
2023-05-10T07:32:06.923Z,97221.75
2023-05-10T07:34:55.908Z,97220.72
2023-05-10T07:37:44.621Z,97215.06
2023-05-10T07:40:34.238Z,97217.59
2023-05-10T07:43:22.956Z,97221.94
2023-05-10T07:46:13.560Z,97231.22
2023-05-10T07:49:02.558Z,97227.00
2023-05-10T07:51:51.542Z,97227.56
2023-05-10T07:54:40.350Z,97236.41
2023-05-10T07:57:29.092Z,97226.59
2023-05-10T08:00:21.595Z,97220.84
2023-05-10T08:03:11.976Z,97228.41
2023-05-10T08:06:00.876Z,97225.38
2023-05-10T08:08:51.615Z,97225.81
2023-05-10T08:11:40.544Z,97235.28
2023-05-10T08:14:31.491Z,97236.13
2023-05-10T08:17:20.934Z,97241.47
2023-05-10T08:20:13.822Z,97244.81
2023-05-10T08:23:02.835Z,97235.06
2023-05-10T08:25:51.580Z,97237.91
2023-05-10T08:28:40.974Z,97231.78
2023-05-10T08:31:29.938Z,97235.81
2023-05-10T08:34:18.794Z,97239.47
2023-05-10T08:37:09.348Z,97237.94
2023-05-10T08:40:00.169Z,97235.97
2023-05-10T08:43:00.742Z,97242.31
2023-05-10T08:45:52.257Z,97250.94
2023-05-10T08:48:42.822Z,97242.59
2023-05-10T08:51:38.054Z,97243.31
2023-05-10T08:54:28.584Z,97244.78
2023-05-10T08:57:17.833Z,97248.88
2023-05-10T09:00:09.148Z,97258.19
2023-05-10T09:02:59.723Z,97243.69
2023-05-10T09:05:49.676Z,97248.25
2023-05-10T09:08:39.817Z,97255.72
2023-05-10T09:11:30.995Z,97259.31
2023-05-10T09:14:21.767Z,97253.97
2023-05-10T09:17:11.796Z,97253.41
2023-05-10T09:20:01.623Z,97261.94
2023-05-10T09:22:50.973Z,97258.44
2023-05-10T09:25:40.335Z,97265.19
2023-05-10T09:28:34.661Z,97267.25
2023-05-10T09:31:27.919Z,97261.06
2023-05-10T09:37:10.523Z,97258.28
2023-05-10T09:39:59.433Z,97258.00
2023-05-10T09:42:56.347Z,97267.16
2023-05-10T09:45:50.714Z,97261.56
2023-05-10T09:48:45.981Z,97263.78
2023-05-10T09:51:37.055Z,97273.66
2023-05-10T09:54:26.287Z,97272.69
2023-05-10T09:57:23.596Z,97273.16
2023-05-10T10:00:19.555Z,97275.31
2023-05-10T10:03:16.560Z,97267.34
2023-05-10T10:06:18.816Z,97258.78
2023-05-10T10:09:12.150Z,97261.56
2023-05-10T10:12:02.167Z,97262.75
2023-05-10T10:14:51.923Z,97262.63
2023-05-10T10:17:41.736Z,97266.34
2023-05-10T10:20:32.008Z,97257.69
2023-05-10T10:23:20.771Z,97263.16
2023-05-10T10:26:10.082Z,97264.34
2023-05-10T10:29:18.546Z,97259.97
2023-05-10T10:32:20.573Z,97257.28
2023-05-10T10:35:11.328Z,97257.25
2023-05-10T10:38:02.680Z,97254.13
2023-05-10T10:41:05.026Z,97243.84
2023-05-10T10:44:28.869Z,97239.44
2023-05-10T10:47:28.367Z,97236.91
2023-05-10T10:50:18.047Z,97234.06
2023-05-10T10:53:14.995Z,97225.34
2023-05-10T10:56:12.345Z,97228.94
2023-05-10T10:59:02.676Z,97224.13
2023-05-10T11:01:54.393Z,97229.28
2023-05-10T11:04:47.812Z,97217.22
2023-05-10T11:07:36.924Z,97212.69
2023-05-10T11:10:29.723Z,97209.38
2023-05-10T11:13:18.708Z,97213.41
2023-05-10T11:16:20.325Z,97222.16
2023-05-10T11:19:12.198Z,97220.25
2023-05-10T11:22:16.546Z,97217.06
2023-05-10T11:25:07.951Z,97215.78
2023-05-10T11:27:58.434Z,97215.69
2023-05-10T11:30:47.656Z,97217.47
2023-05-10T11:33:46.022Z,97214.69
2023-05-10T11:36:37.797Z,97221.13
2023-05-10T11:39:29.584Z,97216.50
2023-05-10T11:42:18.870Z,97212.75
2023-05-10T11:45:10.757Z,97220.41
2023-05-10T11:48:00.929Z,97218.88
2023-05-10T11:50:50.009Z,97221.00
2023-05-10T11:53:39.211Z,97220.19
2023-05-10T11:56:28.264Z,97222.84
2023-05-10T11:59:17.199Z,97218.69
2023-05-10T12:02:07.567Z,97223.00
2023-05-10T12:05:16.146Z,97219.63
2023-05-10T12:08:15.524Z,97225.44
2023-05-10T12:11:11.315Z,97224.03
2023-05-10T12:14:00.426Z,97224.53
2023-05-10T12:16:50.498Z,97222.00
2023-05-10T12:19:44.724Z,97221.13
2023-05-10T12:22:36.444Z,97226.53
2023-05-10T12:25:31.343Z,97224.16
2023-05-10T12:28:22.270Z,97235.56
2023-05-10T12:31:12.858Z,97245.03
2023-05-10T12:34:01.641Z,97241.03
2023-05-10T12:36:54.992Z,97257.00
2023-05-10T12:39:47.047Z,97263.31
2023-05-10T12:42:36.640Z,97262.41
2023-05-10T12:45:26.256Z,97263.78
2023-05-10T12:48:16.901Z,97266.75
2023-05-10T12:51:06.628Z,97270.22
2023-05-10T12:53:56.744Z,97284.06
2023-05-10T12:56:45.813Z,97267.84
2023-05-10T12:59:36.010Z,97281.41
2023-05-10T13:02:26.789Z,97276.19
2023-05-10T13:05:15.686Z,97271.59
2023-05-10T13:08:04.724Z,97273.59
2023-05-10T13:10:55.039Z,97276.97
2023-05-10T13:13:46.843Z,97273.66
2023-05-10T13:16:36.219Z,97279.06
2023-05-10T13:19:25.474Z,97277.50
2023-05-10T13:22:15.025Z,97275.63
2023-05-10T13:25:05.204Z,97273.59
2023-05-10T13:27:57.917Z,97272.44
2023-05-10T13:30:46.721Z,97278.84
2023-05-10T13:33:35.547Z,97274.47
2023-05-10T13:36:24.361Z,97279.63
2023-05-10T13:39:13.118Z,97278.91
2023-05-10T13:42:01.892Z,97278.56
2023-05-10T13:44:52.329Z,97270.31
2023-05-10T13:47:41.052Z,97280.19
2023-05-10T13:50:31.298Z,97281.00
2023-05-10T13:53:20.379Z,97279.63
2023-05-10T13:56:09.234Z,97280.00
2023-05-10T13:58:59.282Z,97277.72
2023-05-10T14:01:49.374Z,97282.38
2023-05-10T14:04:38.118Z,97271.28
2023-05-10T14:07:28.954Z,97271.66
2023-05-10T14:10:17.939Z,97277.72
2023-05-10T14:13:07.159Z,97272.84
2023-05-10T14:15:56.927Z,97270.97
2023-05-10T14:18:47.166Z,97270.66
2023-05-10T14:21:36.085Z,97272.53
2023-05-10T14:24:24.828Z,97273.66
2023-05-10T14:27:13.741Z,97274.47
2023-05-10T14:30:02.781Z,97280.56
2023-05-10T14:32:51.962Z,97279.81
2023-05-10T14:35:42.278Z,97273.81
2023-05-10T14:38:31.016Z,97283.16
2023-05-10T14:41:20.260Z,97274.69
2023-05-10T14:44:09.039Z,97279.03
2023-05-10T14:46:57.863Z,97283.88
2023-05-10T14:49:46.675Z,97283.09
2023-05-10T14:52:37.431Z,97286.56
2023-05-10T14:55:26.447Z,97281.00
2023-05-10T14:58:15.173Z,97288.25
2023-05-10T15:01:04.336Z,97287.16
2023-05-10T15:03:53.813Z,97285.34
2023-05-10T15:06:43.034Z,97289.28
2023-05-10T15:09:33.291Z,97291.78
2023-05-10T15:12:24.878Z,97299.22
2023-05-10T15:15:16.645Z,97301.19
2023-05-10T15:18:06.683Z,97302.38
2023-05-10T15:20:56.269Z,97304.47
2023-05-10T15:23:45.431Z,97304.25
2023-05-10T15:26:36.125Z,97302.03
2023-05-10T15:29:24.952Z,97307.63
2023-05-10T15:32:13.913Z,97310.72
2023-05-10T15:35:03.762Z,97316.59
2023-05-10T15:37:52.700Z,97311.91
2023-05-10T15:40:41.552Z,97316.78
2023-05-10T15:43:31.655Z,97314.50
2023-05-10T15:46:20.420Z,97316.56
2023-05-10T15:49:09.816Z,97323.19
2023-05-10T15:51:58.520Z,97322.06
2023-05-10T15:54:47.184Z,97330.28
2023-05-10T15:57:36.908Z,97332.94
2023-05-10T16:00:27.252Z,97334.94
2023-05-10T16:03:16.421Z,97332.38
2023-05-10T16:06:06.435Z,97327.69
2023-05-10T16:08:55.196Z,97325.00
2023-05-10T16:11:45.428Z,97327.81
2023-05-10T16:14:34.207Z,97334.47
2023-05-10T16:17:24.538Z,97332.00
2023-05-10T16:20:13.589Z,97339.53
2023-05-10T16:23:07.101Z,97336.41
2023-05-10T16:25:56.001Z,97348.53
2023-05-10T16:28:45.096Z,97352.72
2023-05-10T16:31:34.534Z,97345.59
2023-05-10T16:34:25.426Z,97342.66
2023-05-10T16:37:14.326Z,97345.03
2023-05-10T16:40:04.149Z,97347.34
2023-05-10T16:42:52.911Z,97339.28
2023-05-10T16:45:42.205Z,97337.34
2023-05-10T16:48:33.512Z,97345.88
2023-05-10T16:51:23.725Z,97342.63
2023-05-10T16:54:12.535Z,97336.31
2023-05-10T16:57:02.181Z,97352.09
2023-05-10T16:59:55.088Z,97341.66
2023-05-10T17:02:43.861Z,97341.50
2023-05-10T17:05:32.661Z,97350.03
2023-05-10T17:08:23.471Z,97354.75
2023-05-10T17:11:12.277Z,97349.66
2023-05-10T17:14:04.907Z,97354.41
2023-05-10T17:16:55.048Z,97356.31
2023-05-10T17:19:46.764Z,97357.81
2023-05-10T17:22:35.611Z,97363.28
2023-05-10T17:25:25.882Z,97362.88
2023-05-10T17:28:15.120Z,97363.19
2023-05-10T17:31:04.029Z,97374.81
2023-05-10T17:33:52.843Z,97370.06
2023-05-10T17:36:41.584Z,97371.16
2023-05-10T17:39:30.408Z,97376.22
2023-05-10T17:42:22.747Z,97373.47
2023-05-10T17:45:13.061Z,97376.72
2023-05-10T17:48:02.157Z,97380.53
2023-05-10T17:50:51.542Z,97382.28
2023-05-10T17:53:40.992Z,97384.44
2023-05-10T17:56:29.819Z,97388.50
2023-05-10T17:59:19.994Z,97391.53
2023-05-10T18:02:09.004Z,97399.81
2023-05-10T18:05:00.068Z,97405.31
2023-05-10T18:07:48.979Z,97405.38
2023-05-10T18:10:41.479Z,97410.56
2023-05-10T18:13:30.570Z,97397.66
2023-05-10T18:16:20.800Z,97403.34
2023-05-10T18:19:09.711Z,97408.59
2023-05-10T18:21:58.592Z,97411.41
2023-05-10T18:24:47.789Z,97417.31
2023-05-10T18:27:52.136Z,97419.63
2023-05-10T18:30:41.873Z,97422.03
2023-05-10T18:33:32.115Z,97418.78
2023-05-10T18:36:21.388Z,97422.31
2023-05-10T18:39:10.346Z,97419.22
2023-05-10T18:41:59.173Z,97426.78
2023-05-10T18:44:47.981Z,97428.19
2023-05-10T18:47:36.766Z,97438.34
2023-05-10T18:50:27.076Z,97432.19
2023-05-10T18:53:15.925Z,97430.16
2023-05-10T18:56:04.790Z,97434.38
2023-05-10T18:58:53.703Z,97438.53
2023-05-10T19:01:43.207Z,97436.69
2023-05-10T19:04:32.430Z,97442.88
2023-05-10T19:07:22.605Z,97444.63
2023-05-10T19:10:13.399Z,97442.16
2023-05-10T19:13:02.299Z,97457.25
2023-05-10T19:16:04.898Z,97455.41
2023-05-10T19:18:54.634Z,97458.50
2023-05-10T19:21:43.456Z,97462.81
2023-05-10T19:24:35.367Z,97460.69
2023-05-10T19:27:24.187Z,97471.13
2023-05-10T19:30:14.068Z,97465.13
2023-05-10T19:33:04.153Z,97466.88
2023-05-10T19:35:53.674Z,97473.31
2023-05-10T19:38:42.576Z,97469.72
2023-05-10T19:41:32.669Z,97468.81
2023-05-10T19:44:21.895Z,97472.88
2023-05-10T19:47:11.983Z,97480.00
2023-05-10T19:50:01.105Z,97464.50
2023-05-10T19:52:50.659Z,97470.41
2023-05-10T19:55:40.165Z,97469.78
2023-05-10T19:58:30.595Z,97462.75
2023-05-10T20:01:19.377Z,97464.75
2023-05-10T20:04:10.123Z,97462.28
2023-05-10T20:06:58.910Z,97470.50
2023-05-10T20:09:47.721Z,97464.88
2023-05-10T20:12:36.444Z,97469.78
2023-05-10T20:15:27.839Z,97470.75
2023-05-10T20:18:16.701Z,97472.25
2023-05-10T20:21:06.509Z,97476.66
2023-05-10T20:23:55.239Z,97472.00
2023-05-10T20:26:43.973Z,97474.63
2023-05-10T20:29:33.515Z,97475.44
2023-05-10T20:32:23.655Z,97480.63
2023-05-10T20:35:12.459Z,97468.91
2023-05-10T20:38:02.148Z,97470.28
2023-05-10T20:40:50.871Z,97468.00
2023-05-10T20:43:39.574Z,97470.75
2023-05-10T20:46:28.784Z,97472.50
2023-05-10T20:49:19.677Z,97471.94
2023-05-10T20:52:09.187Z,97474.53
2023-05-10T20:54:57.988Z,97465.63
2023-05-10T20:57:47.081Z,97460.25
2023-05-10T21:00:35.818Z,97459.53
2023-05-10T21:03:24.579Z,97470.81
2023-05-10T21:06:14.947Z,97466.41
2023-05-10T21:09:04.209Z,97467.28
2023-05-10T21:11:53.163Z,97466.50
2023-05-10T21:14:42.982Z,97467.66
2023-05-10T21:17:31.735Z,97463.84
2023-05-10T21:20:20.567Z,97461.28
2023-05-10T21:23:10.730Z,97457.94
2023-05-10T21:25:59.517Z,97461.03
2023-05-10T21:28:48.455Z,97457.94
2023-05-10T21:31:37.253Z,97454.06
2023-05-10T21:34:26.008Z,97457.63
2023-05-10T21:37:16.018Z,97456.72
2023-05-10T21:40:07.379Z,97455.72
2023-05-10T21:42:56.018Z,97454.91
2023-05-10T21:45:44.873Z,97456.06
2023-05-10T21:48:33.691Z,97459.56
2023-05-10T21:51:22.819Z,97450.75
2023-05-10T21:54:11.668Z,97457.59
2023-05-10T21:57:01.793Z,97452.78
2023-05-10T21:59:50.774Z,97457.97
2023-05-10T22:02:39.694Z,97458.97
2023-05-10T22:05:28.547Z,97459.84
2023-05-10T22:08:17.375Z,97466.53
2023-05-10T22:11:06.553Z,97459.19
2023-05-10T22:13:56.805Z,97456.47
2023-05-10T22:16:45.602Z,97457.84
2023-05-10T22:19:34.432Z,97457.59
2023-05-10T22:22:23.432Z,97457.97
2023-05-10T22:25:12.252Z,97456.81
2023-05-10T22:28:00.990Z,97451.72
2023-05-10T22:30:51.630Z,97457.25
2023-05-10T22:33:40.348Z,97460.38
2023-05-10T22:36:29.679Z,97448.97
2023-05-10T22:39:18.546Z,97447.09
2023-05-10T22:42:07.346Z,97453.78
2023-05-10T22:44:56.452Z,97456.59
2023-05-10T22:47:47.670Z,97458.97
2023-05-10T22:50:36.982Z,97452.66
2023-05-10T22:53:25.793Z,97450.19
2023-05-10T22:56:14.983Z,97458.84
2023-05-10T22:59:03.714Z,97456.72
2023-05-10T23:01:52.663Z,97454.69
2023-05-10T23:04:42.769Z,97450.75
2023-05-10T23:07:31.523Z,97453.38
2023-05-10T23:10:20.579Z,97456.47
2023-05-10T23:13:09.350Z,97454.44
2023-05-10T23:15:58.040Z,97447.06
2023-05-10T23:18:47.000Z,97452.06
2023-05-10T23:21:37.166Z,97453.22
2023-05-10T23:24:25.919Z,97450.84
2023-05-10T23:27:14.697Z,97461.13
2023-05-10T23:30:03.584Z,97457.25
2023-05-10T23:32:53.034Z,97462.97
2023-05-10T23:35:41.839Z,97455.31
2023-05-10T23:38:31.989Z,97457.06
2023-05-10T23:41:20.830Z,97450.25
2023-05-10T23:44:09.568Z,97454.44
2023-05-10T23:46:58.248Z,97448.59
2023-05-10T23:49:46.972Z,97450.34
2023-05-10T23:52:35.805Z,97455.25
2023-05-10T23:55:25.979Z,97443.88
2023-05-10T23:58:14.867Z,97454.75
